Time;durP1;ratioP1;P1;durP2;ratioP2;P2;SDS_P1;SDS_P2;PMS_P1;PMS_P2;Temp;Humidity;BMP_temperature;BMP_pressure;BME280_temperature;BME280_humidity;BME280_pressure;Samples;Min_cycle;Max_cycle;Signal;HPM_P1;HPM_P2
2021/12/10 00:01:17;;;;;;;39.85;22.17;;;4.30;99.90;;;;;;4975978;28;20130;-77
2021/12/10 00:03:47;;;;;;;38.97;21.52;;;4.30;99.90;;;;;;4976170;28;20051;-77
2021/12/10 00:06:28;;;;;;;40.00;21.52;;;4.30;99.90;;;;;;4975704;28;20062;-76
2021/12/10 00:08:59;;;;;;;35.53;20.38;;;4.30;99.90;;;;;;4975634;28;20043;-77
2021/12/10 00:11:39;;;;;;;39.97;20.48;;;4.20;99.90;;;;;;4976207;28;20077;-77
2021/12/10 00:14:07;;;;;;;37.20;20.23;;;4.30;99.90;;;;;;4976081;28;20038;-76
2021/12/10 00:16:33;;;;;;;38.78;18.92;;;4.30;99.90;;;;;;4975278;28;20046;-75
2021/12/10 00:19:15;;;;;;;36.38;18.13;;;4.50;99.90;;;;;;4958537;28;20051;-76
2021/12/10 00:21:41;;;;;;;36.13;17.58;;;4.30;99.90;;;;;;4975904;28;20042;-78
2021/12/10 00:24:09;;;;;;;40.90;18.85;;;4.30;99.90;;;;;;4975493;28;20135;-76
2021/12/10 00:26:35;;;;;;;39.10;18.33;;;4.20;99.90;;;;;;4975642;28;20039;-77
2021/12/10 00:29:03;;;;;;;33.95;17.88;;;4.30;99.90;;;;;;4975784;28;20105;-77
2021/12/10 00:31:51;;;;;;;33.97;17.83;;;4.30;99.90;;;;;;4975526;28;20046;-76
2021/12/10 00:34:21;;;;;;;33.60;17.50;;;4.30;99.90;;;;;;4975583;28;20065;-76
2021/12/10 00:36:51;;;;;;;38.40;18.50;;;4.30;99.90;;;;;;4975698;28;20051;-77
2021/12/10 00:39:27;;;;;;;38.63;19.92;;;4.30;99.90;;;;;;4958533;28;20054;-77
2021/12/10 00:41:55;;;;;;;34.13;18.05;;;4.30;99.90;;;;;;4975436;28;20090;-78
2021/12/10 00:44:21;;;;;;;34.58;17.98;;;4.30;99.90;;;;;;4975694;28;20406;-77
2021/12/10 00:46:47;;;;;;;40.38;18.30;;;4.30;99.90;;;;;;4975715;28;20386;-77
2021/12/10 00:49:13;;;;;;;36.20;17.88;;;4.30;99.90;;;;;;4974964;28;20405;-78
2021/12/10 00:51:40;;;;;;;34.50;16.70;;;4.30;99.90;;;;;;4958102;28;20137;-76
2021/12/10 00:54:09;;;;;;;42.78;17.15;;;4.30;99.90;;;;;;4975474;28;20093;-77
2021/12/10 00:56:35;;;;;;;37.65;18.88;;;4.30;99.90;;;;;;4974726;28;20046;-77
2021/12/10 00:59:01;;;;;;;33.88;17.30;;;4.30;99.90;;;;;;4958151;28;20077;-77
2021/12/10 01:01:29;;;;;;;31.48;17.42;;;4.30;99.90;;;;;;4975217;28;20046;-76
2021/12/10 01:04:02;;;;;;;43.17;19.20;;;4.30;99.90;;;;;;4974847;28;20054;-77
2021/12/10 01:06:28;;;;;;;31.50;17.83;;;4.30;99.90;;;;;;4975148;28;20065;-77
2021/12/10 01:08:59;;;;;;;36.00;17.75;;;4.30;99.90;;;;;;4975123;28;20039;-78
2021/12/10 01:11:29;;;;;;;37.13;17.00;;;4.30;99.90;;;;;;4957375;28;20050;-75
2021/12/10 01:14:08;;;;;;;27.48;16.50;;;4.30;99.90;;;;;;4974974;28;20081;-76
2021/12/10 01:27:50;;;;;;;31.20;15.65;;;4.30;99.90;;;;;;4974653;28;20081;-76
2021/12/10 01:30:17;;;;;;;37.50;16.77;;;4.30;99.90;;;;;;4971554;28;20055;-77
2021/12/10 01:32:51;;;;;;;27.95;15.75;;;4.30;99.90;;;;;;4957076;28;20490;-77
2021/12/10 01:35:21;;;;;;;32.85;16.73;;;4.20;99.90;;;;;;4974184;28;20051;-76
2021/12/10 01:37:49;;;;;;;28.58;15.93;;;4.20;99.90;;;;;;4974602;28;20101;-76
2021/12/10 01:40:19;;;;;;;32.90;15.77;;;4.20;99.90;;;;;;4957028;28;20138;-77
2021/12/10 01:42:48;;;;;;;33.65;16.25;;;4.10;99.90;;;;;;4974418;28;20064;-77
2021/12/10 01:45:21;;;;;;;31.42;15.52;;;4.10;99.90;;;;;;4974626;28;20457;-77
2021/12/10 01:47:53;;;;;;;33.22;15.45;;;4.10;99.90;;;;;;4974532;28;20093;-76
2021/12/10 01:50:19;;;;;;;33.35;15.40;;;4.00;99.90;;;;;;4973752;28;20051;-76
2021/12/10 01:52:53;;;;;;;27.90;15.48;;;4.50;99.90;;;;;;4973744;28;20085;-76
2021/12/10 01:55:21;;;;;;;34.55;15.02;;;4.00;99.90;;;;;;4973993;28;20058;-77
2021/12/10 01:57:48;;;;;;;30.38;15.05;;;3.90;99.90;;;;;;4974377;28;20042;-77
2021/12/10 02:00:15;;;;;;;30.50;14.52;;;3.90;99.90;;;;;;4974383;28;20057;-76
2021/12/10 02:02:45;;;;;;;32.90;15.95;;;3.80;99.90;;;;;;4974238;28;20449;-77
2021/12/10 02:05:11;;;;;;;33.50;14.75;;;3.80;99.90;;;;;;4973573;28;20492;-77
2021/12/10 02:07:36;;;;;;;30.98;14.23;;;3.80;99.90;;;;;;4974106;28;20141;-76
2021/12/10 02:10:05;;;;;;;26.60;14.73;;;3.70;99.90;;;;;;4973740;28;20070;-76
2021/12/10 02:12:31;;;;;;;25.73;14.52;;;3.70;99.90;;;;;;4974202;28;20394;-76
2021/12/10 02:15:02;;;;;;;31.77;14.27;;;3.70;99.90;;;;;;4973994;28;20051;-77
2021/12/10 02:17:35;;;;;;;27.42;14.43;;;3.70;99.90;;;;;;4974025;28;20050;-76
2021/12/10 02:20:08;;;;;;;26.45;13.85;;;3.70;99.90;;;;;;4973859;28;20051;-77
2021/12/10 02:22:34;;;;;;;28.35;12.80;;;3.80;99.90;;;;;;4954074;29;20043;-76
2021/12/10 02:25:00;;;;;;;30.63;12.85;;;3.70;99.90;;;;;;4954375;29;20047;-77
2021/12/10 02:27:26;;;;;;;32.05;13.27;;;3.70;99.90;;;;;;4956164;28;20130;-77
2021/12/10 02:29:52;;;;;;;25.85;12.13;;;3.80;99.90;;;;;;4973360;28;20125;-76
2021/12/10 02:32:18;;;;;;;25.42;12.38;;;3.80;99.90;;;;;;4956647;28;20051;-76
2021/12/10 02:34:44;;;;;;;32.75;12.20;;;3.80;99.90;;;;;;4956155;28;20065;-76
2021/12/10 02:37:10;;;;;;;32.58;12.85;;;3.80;99.90;;;;;;4973216;28;20074;-76
2021/12/10 02:39:36;;;;;;;26.10;12.38;;;3.80;99.90;;;;;;4973500;28;20047;-76
2021/12/10 02:42:02;;;;;;;22.40;12.00;;;3.80;99.90;;;;;;4973661;28;20051;-75
2021/12/10 02:44:30;;;;;;;29.52;12.32;;;3.80;99.90;;;;;;4956145;28;20054;-76
2021/12/10 02:46:57;;;;;;;32.10;12.45;;;3.80;99.90;;;;;;4973544;28;20517;-77
2021/12/10 02:49:24;;;;;;;28.80;12.00;;;3.80;99.90;;;;;;4973487;28;20081;-77
2021/12/10 02:51:50;;;;;;;36.13;13.82;;;3.80;99.90;;;;;;4972824;28;20398;-77
2021/12/10 02:54:21;;;;;;;22.23;12.55;;;3.90;99.90;;;;;;4973213;28;20050;-76
2021/12/10 02:56:48;;;;;;;34.80;14.02;;;3.90;99.90;;;;;;4973653;28;20097;-77
2021/12/10 02:59:13;;;;;;;25.85;13.15;;;3.90;99.90;;;;;;4955814;28;20055;-76
2021/12/10 03:01:49;;;;;;;30.77;12.73;;;3.90;99.90;;;;;;4973311;28;20043;-78
2021/12/10 03:04:15;;;;;;;27.67;14.13;;;3.90;99.90;;;;;;4974847;28;20106;-77
2021/12/10 03:06:46;;;;;;;28.85;13.55;;;3.90;99.90;;;;;;4959600;28;20082;-78
2021/12/10 03:09:13;;;;;;;36.05;14.77;;;3.90;99.90;;;;;;4976910;28;20054;-77
2021/12/10 03:11:46;;;;;;;35.38;12.93;;;3.90;99.90;;;;;;4960098;28;20055;-77
2021/12/10 03:14:14;;;;;;;29.95;14.05;;;3.90;99.90;;;;;;4977050;28;20047;-77
2021/12/10 03:16:41;;;;;;;29.08;12.57;;;3.90;99.90;;;;;;4977216;28;20094;-77
2021/12/10 03:19:07;;;;;;;29.92;13.25;;;3.90;99.90;;;;;;4977029;28;20053;-76
2021/12/10 03:21:37;;;;;;;25.90;13.50;;;3.90;99.90;;;;;;4959395;28;20481;-76
2021/12/10 03:24:04;;;;;;;26.35;13.50;;;3.90;99.90;;;;;;4976614;28;20054;-77
2021/12/10 03:26:30;;;;;;;25.42;13.70;;;3.90;99.90;;;;;;4959532;28;20417;-76
2021/12/10 03:28:56;;;;;;;35.58;13.77;;;3.90;99.90;;;;;;4959489;28;20047;-77
2021/12/10 03:31:24;;;;;;;27.23;12.57;;;3.90;99.90;;;;;;4976966;28;20049;-78
2021/12/10 03:33:53;;;;;;;24.50;12.48;;;3.90;99.90;;;;;;4976574;28;20394;-77
2021/12/10 03:36:20;;;;;;;29.17;12.43;;;3.90;99.90;;;;;;4976689;28;20391;-77
2021/12/10 03:38:47;;;;;;;25.88;13.77;;;3.90;99.90;;;;;;4976670;28;20398;-78
2021/12/10 03:41:14;;;;;;;28.58;13.85;;;3.90;99.90;;;;;;4976841;28;20139;-78
2021/12/10 03:43:44;;;;;;;28.08;12.85;;;3.90;99.90;;;;;;4976780;28;20053;-77
2021/12/10 03:46:11;;;;;;;25.00;12.25;;;3.90;99.90;;;;;;4976585;28;20387;-76
2021/12/10 03:48:42;;;;;;;35.80;12.90;;;3.90;99.90;;;;;;4976451;28;20043;-75
2021/12/10 03:51:14;;;;;;;23.02;11.98;;;3.90;99.90;;;;;;4958791;28;20418;-77
2021/12/10 03:53:39;;;;;;;25.88;12.05;;;3.90;99.90;;;;;;4976343;28;20414;-77
2021/12/10 03:56:09;;;;;;;25.55;12.45;;;3.90;99.90;;;;;;4976464;28;20051;-77
2021/12/10 03:58:35;;;;;;;28.90;12.25;;;3.90;99.90;;;;;;4976465;28;20035;-76
2021/12/10 04:01:04;;;;;;;25.42;12.55;;;3.90;99.90;;;;;;4976267;28;20038;-77
2021/12/10 04:03:31;;;;;;;28.23;12.00;;;4.00;99.90;;;;;;4976231;28;20165;-77
2021/12/10 04:05:57;;;;;;;31.92;12.75;;;3.90;99.90;;;;;;4976295;28;20061;-76
2021/12/10 04:08:23;;;;;;;29.42;12.50;;;3.90;99.90;;;;;;4976344;28;20075;-77
2021/12/10 04:10:50;;;;;;;23.20;11.82;;;3.80;99.90;;;;;;4976031;28;20042;-77
2021/12/10 04:13:17;;;;;;;27.77;13.00;;;3.80;99.90;;;;;;4976016;28;20082;-77
2021/12/10 04:15:42;;;;;;;21.52;11.73;;;3.90;99.90;;;;;;4975566;28;20114;-77
2021/12/10 04:18:09;;;;;;;27.58;11.40;;;3.80;99.90;;;;;;4976067;28;20558;-77
2021/12/10 04:20:36;;;;;;;29.65;11.90;;;3.80;99.90;;;;;;4975737;28;20121;-77
2021/12/10 04:23:05;;;;;;;29.08;13.93;;;3.80;99.90;;;;;;4975929;28;20046;-77
2021/12/10 04:25:31;;;;;;;26.23;13.35;;;3.80;99.90;;;;;;4975758;28;20409;-77
2021/12/10 04:28:00;;;;;;;26.15;11.02;;;3.80;99.90;;;;;;4958817;28;20039;-76
2021/12/10 04:30:26;;;;;;;24.17;13.50;;;3.80;99.90;;;;;;4975697;28;20474;-78
2021/12/10 04:32:53;;;;;;;24.80;13.32;;;3.70;99.90;;;;;;4975679;28;20117;-76
2021/12/10 04:35:19;;;;;;;23.30;13.27;;;3.70;99.90;;;;;;4975460;28;20536;-76
2021/12/10 04:37:49;;;;;;;25.20;13.68;;;3.70;99.90;;;;;;4975906;28;20051;-77
2021/12/10 04:40:18;;;;;;;27.00;14.27;;;3.70;99.90;;;;;;4975568;28;20065;-77
2021/12/10 04:42:45;;;;;;;22.95;12.23;;;3.60;99.90;;;;;;4975498;28;20054;-77
2021/12/10 04:45:14;;;;;;;27.48;13.32;;;3.60;99.90;;;;;;4975621;28;20398;-76
2021/12/10 04:47:41;;;;;;;24.52;13.27;;;3.60;99.90;;;;;;4975361;28;20034;-76
2021/12/10 04:50:09;;;;;;;28.33;13.77;;;3.50;99.90;;;;;;4975118;28;20086;-77
2021/12/10 04:52:35;;;;;;;24.80;13.07;;;3.50;99.90;;;;;;4957849;28;20046;-77
2021/12/10 04:55:06;;;;;;;25.50;12.00;;;3.50;99.90;;;;;;4975430;28;20398;-76
2021/12/10 04:57:32;;;;;;;23.02;12.48;;;3.60;99.90;;;;;;4974970;28;20405;-76
2021/12/10 04:59:58;;;;;;;22.45;12.30;;;3.40;99.90;;;;;;4975302;28;20121;-76
2021/12/10 05:02:25;;;;;;;23.23;13.02;;;3.30;99.90;;;;;;4975043;28;20505;-76
2021/12/10 05:04:56;;;;;;;25.33;14.43;;;3.30;99.90;;;;;;4975389;28;20078;-77
2021/12/10 05:07:22;;;;;;;28.88;13.43;;;3.30;99.90;;;;;;4975309;28;20047;-76
2021/12/10 05:09:48;;;;;;;25.38;13.43;;;3.20;99.90;;;;;;4975262;28;20081;-76
2021/12/10 05:12:15;;;;;;;28.92;13.32;;;3.20;99.90;;;;;;4957105;28;20075;-76
2021/12/10 05:14:41;;;;;;;25.08;14.73;;;3.20;99.90;;;;;;4974852;28;20047;-77
2021/12/10 05:17:08;;;;;;;25.77;15.25;;;3.10;99.90;;;;;;4974829;28;20035;-77
2021/12/10 05:19:35;;;;;;;24.65;15.05;;;3.10;99.90;;;;;;4974835;28;20069;-76
2021/12/10 05:22:03;;;;;;;29.25;14.93;;;3.00;99.90;;;;;;4974845;28;20043;-77
2021/12/10 05:24:29;;;;;;;27.10;15.15;;;3.00;99.90;;;;;;4957532;28;20058;-76
2021/12/10 05:26:56;;;;;;;29.90;14.57;;;3.00;99.90;;;;;;4973350;28;20051;-76
2021/12/10 05:29:22;;;;;;;23.20;15.23;;;3.00;99.90;;;;;;4974750;28;20049;-76
2021/12/10 05:31:49;;;;;;;27.48;15.52;;;3.00;99.90;;;;;;4957284;28;20101;-76
2021/12/10 05:34:17;;;;;;;25.52;14.75;;;2.90;99.90;;;;;;4956858;28;20069;-77
2021/12/10 05:36:42;;;;;;;27.42;15.73;;;3.00;99.90;;;;;;4974688;28;20058;-75
2021/12/10 05:39:10;;;;;;;23.63;14.30;;;3.00;99.90;;;;;;4974505;28;20094;-77
2021/12/10 05:41:36;;;;;;;28.00;15.32;;;3.00;99.90;;;;;;4974568;28;20093;-77
2021/12/10 05:44:04;;;;;;;25.58;15.77;;;3.00;99.90;;;;;;4956855;28;20046;-75
2021/12/10 05:46:31;;;;;;;25.10;16.13;;;3.00;99.90;;;;;;4974348;28;20042;-76
2021/12/10 05:48:57;;;;;;;32.70;15.80;;;2.90;99.90;;;;;;4974299;28;20393;-76
2021/12/10 05:51:23;;;;;;;27.27;16.85;;;2.90;99.90;;;;;;4974556;28;20607;-77
2021/12/10 05:53:50;;;;;;;28.17;16.05;;;2.90;99.90;;;;;;4957053;28;20113;-76
2021/12/10 05:56:17;;;;;;;26.30;15.90;;;2.90;99.90;;;;;;4974381;28;20047;-77
2021/12/10 05:58:43;;;;;;;32.95;17.58;;;2.80;99.90;;;;;;4973915;28;20034;-76
2021/12/10 06:01:12;;;;;;;27.73;15.88;;;2.80;99.90;;;;;;4974109;28;20064;-76
2021/12/10 06:03:40;;;;;;;29.20;15.88;;;2.80;99.90;;;;;;4974210;28;20050;-76
2021/12/10 06:06:07;;;;;;;28.35;16.50;;;2.70;99.90;;;;;;4974256;28;20130;-77
2021/12/10 06:08:33;;;;;;;30.70;17.33;;;2.70;99.90;;;;;;4973982;28;20548;-77
2021/12/10 06:11:00;;;;;;;30.08;15.63;;;2.70;99.90;;;;;;4974104;28;20533;-77
2021/12/10 06:13:27;;;;;;;28.85;16.77;;;2.70;99.90;;;;;;4973739;28;20046;-75
2021/12/10 06:15:53;;;;;;;30.23;17.27;;;2.60;99.90;;;;;;4973820;28;20102;-77
2021/12/10 06:18:19;;;;;;;23.33;14.95;;;2.60;99.90;;;;;;4973910;28;20169;-75
2021/12/10 06:20:48;;;;;;;28.00;16.80;;;2.60;99.90;;;;;;4973887;28;20080;-77
2021/12/10 06:23:15;;;;;;;28.63;16.60;;;2.60;99.90;;;;;;4973816;28;20050;-77
2021/12/10 06:25:41;;;;;;;26.33;16.42;;;2.60;99.90;;;;;;4973940;28;20051;-77
2021/12/10 06:28:07;;;;;;;28.33;16.73;;;2.50;99.90;;;;;;4973469;28;20093;-76
2021/12/10 06:30:39;;;;;;;25.58;16.63;;;2.50;99.90;;;;;;4973439;28;20042;-76
2021/12/10 06:33:09;;;;;;;22.73;15.05;;;2.50;99.90;;;;;;4974035;28;20043;-77
2021/12/10 06:35:37;;;;;;;25.52;15.35;;;2.50;99.90;;;;;;4973330;28;20410;-77
2021/12/10 06:38:03;;;;;;;24.90;15.43;;;2.60;99.90;;;;;;4956482;28;20504;-76
2021/12/10 06:40:32;;;;;;;25.65;15.32;;;2.50;99.90;;;;;;4956228;28;20058;-77
2021/12/10 06:42:58;;;;;;;28.88;15.95;;;2.50;99.90;;;;;;4973723;28;20425;-76
2021/12/10 06:45:27;;;;;;;26.10;14.82;;;2.40;99.90;;;;;;4973072;28;20045;-76
2021/12/10 06:47:58;;;;;;;32.45;17.48;;;2.40;99.90;;;;;;4973717;28;20038;-76
2021/12/10 06:50:27;;;;;;;30.95;15.13;;;2.40;99.90;;;;;;4973253;28;20062;-77
2021/12/10 06:52:53;;;;;;;32.60;16.33;;;2.40;99.90;;;;;;4956394;28;20049;-77
2021/12/10 06:55:20;;;;;;;29.50;15.80;;;2.40;99.90;;;;;;4973468;28;20072;-76
2021/12/10 06:57:46;;;;;;;22.50;14.18;;;2.30;99.90;;;;;;4973428;28;20074;-76
2021/12/10 07:00:24;;;;;;;25.27;15.57;;;2.30;99.90;;;;;;4973016;28;20039;-76
2021/12/10 07:02:50;;;;;;;26.90;14.02;;;2.30;99.90;;;;;;4973522;28;20053;-76
2021/12/10 07:05:16;;;;;;;25.60;13.90;;;2.20;99.90;;;;;;4973436;28;20094;-77
2021/12/10 07:07:43;;;;;;;19.00;12.75;;;2.20;99.90;;;;;;4973235;28;20046;-77
2021/12/10 07:10:10;;;;;;;22.80;13.45;;;2.20;99.90;;;;;;4973005;28;20069;-76
2021/12/10 07:12:38;;;;;;;21.00;12.35;;;2.20;99.90;;;;;;4973191;28;20043;-76
2021/12/10 07:15:08;;;;;;;20.67;13.15;;;2.20;99.90;;;;;;4955941;28;20050;-77
2021/12/10 07:17:34;;;;;;;25.45;13.82;;;2.10;99.90;;;;;;4972917;28;20105;-77
2021/12/10 07:19:59;;;;;;;23.67;13.32;;;2.10;99.90;;;;;;4955803;28;20042;-76
2021/12/10 07:22:25;;;;;;;22.50;12.38;;;2.10;99.90;;;;;;4972003;28;20054;-76
2021/12/10 07:24:51;;;;;;;20.63;12.02;;;2.00;99.90;;;;;;4973303;28;20042;-77
2021/12/10 07:27:17;;;;;;;20.50;12.85;;;2.00;99.90;;;;;;4973153;28;20049;-77
2021/12/10 07:29:42;;;;;;;22.95;12.27;;;2.00;99.90;;;;;;4973046;28;20545;-77
2021/12/10 07:32:09;;;;;;;21.70;13.40;;;2.00;99.90;;;;;;4972987;28;20042;-77
2021/12/10 07:34:35;;;;;;;22.15;12.18;;;1.90;99.90;;;;;;4972711;28;20498;-78
2021/12/10 07:37:01;;;;;;;23.13;11.95;;;1.90;99.90;;;;;;4972903;28;20047;-77
2021/12/10 07:39:28;;;;;;;19.48;12.40;;;1.90;99.90;;;;;;4973212;28;20138;-78
2021/12/10 07:41:54;;;;;;;23.55;12.52;;;1.90;99.90;;;;;;4972663;28;20049;-75
2021/12/10 07:44:20;;;;;;;21.63;11.52;;;1.90;99.90;;;;;;4954345;28;20054;-76
2021/12/10 07:46:48;;;;;;;20.15;12.88;;;1.90;99.90;;;;;;4972529;28;20397;-76
2021/12/10 07:49:16;;;;;;;22.45;11.60;;;1.80;99.90;;;;;;4972655;28;20055;-76
2021/12/10 07:51:47;;;;;;;18.77;11.05;;;1.80;99.90;;;;;;4976307;28;20080;-75
2021/12/10 07:54:13;;;;;;;21.75;11.13;;;1.80;99.90;;;;;;4976433;28;20047;-77
2021/12/10 07:56:39;;;;;;;20.60;11.82;;;1.80;99.90;;;;;;4959302;28;20062;-76
2021/12/10 07:59:05;;;;;;;19.98;10.98;;;1.70;99.90;;;;;;4976338;28;20073;-77
2021/12/10 08:01:31;;;;;;;20.83;12.02;;;1.70;99.90;;;;;;4958767;28;20509;-78
2021/12/10 08:04:00;;;;;;;25.45;12.25;;;1.70;99.90;;;;;;4975740;28;20050;-76
2021/12/10 08:06:28;;;;;;;20.45;12.10;;;1.70;99.90;;;;;;4958864;28;20086;-76
2021/12/10 08:08:54;;;;;;;17.98;10.70;;;1.70;99.90;;;;;;4975682;28;20089;-77
2021/12/10 08:11:20;;;;;;;21.85;11.90;;;1.70;99.90;;;;;;4975936;28;20129;-78
2021/12/10 08:13:46;;;;;;;20.98;11.80;;;1.70;99.90;;;;;;4958323;28;20050;-76
2021/12/10 08:16:12;;;;;;;18.15;10.80;;;1.70;99.90;;;;;;4976220;28;20073;-77
2021/12/10 08:18:38;;;;;;;22.30;11.40;;;1.60;99.90;;;;;;4975276;28;20035;-76
2021/12/10 08:21:05;;;;;;;19.15;10.02;;;1.70;99.90;;;;;;4957906;28;20071;-76
2021/12/10 08:23:31;;;;;;;17.77;9.93;;;1.70;99.90;;;;;;4975921;28;20125;-74
2021/12/10 08:25:57;;;;;;;20.73;11.07;;;1.60;99.90;;;;;;4975730;28;20397;-75
2021/12/10 08:28:25;;;;;;;18.95;10.35;;;1.70;99.90;;;;;;4975535;28;20490;-77
2021/12/10 08:30:51;;;;;;;18.00;9.90;;;1.70;99.90;;;;;;4975771;28;20050;-76
2021/12/10 08:33:17;;;;;;;18.52;9.93;;;1.70;99.90;;;;;;4975647;28;20053;-77
2021/12/10 08:35:48;;;;;;;17.15;10.25;;;1.70;99.90;;;;;;4975501;28;20065;-77
2021/12/10 08:38:14;;;;;;;20.33;10.05;;;1.70;99.90;;;;;;4975656;28;20046;-76
2021/12/10 08:40:47;;;;;;;20.27;9.30;;;1.70;99.90;;;;;;4975088;28;20046;-75
2021/12/10 08:43:13;;;;;;;22.40;10.07;;;1.70;99.90;;;;;;4976141;28;20055;-78
2021/12/10 08:45:41;;;;;;;17.48;9.07;;;1.70;99.90;;;;;;4975676;28;20061;-77
2021/12/10 08:48:06;;;;;;;20.50;10.07;;;1.70;99.90;;;;;;4975570;28;20401;-76
2021/12/10 08:50:35;;;;;;;17.65;10.25;;;1.70;99.90;;;;;;4974982;28;20121;-77
2021/12/10 08:53:05;;;;;;;18.17;10.20;;;1.70;99.90;;;;;;4975349;28;20489;-78
2021/12/10 08:55:32;;;;;;;17.50;9.73;;;1.80;99.90;;;;;;4974820;28;20130;-76
2021/12/10 08:57:58;;;;;;;15.63;9.10;;;1.80;99.90;;;;;;4974725;28;20043;-75
2021/12/10 09:00:25;;;;;;;15.60;9.00;;;1.80;99.90;;;;;;4975260;28;20503;-76
2021/12/10 09:02:53;;;;;;;16.90;8.98;;;1.80;99.90;;;;;;4974152;28;20122;-77
2021/12/10 09:05:19;;;;;;;17.73;9.43;;;1.80;99.90;;;;;;4975063;28;20701;-76
2021/12/10 09:07:45;;;;;;;14.07;8.88;;;1.90;99.90;;;;;;4975119;28;20054;-76
2021/12/10 09:10:13;;;;;;;22.02;8.80;;;1.90;99.90;;;;;;4957578;28;20043;-76
2021/12/10 09:12:39;;;;;;;18.40;9.07;;;1.90;99.90;;;;;;4957605;28;20469;-75
2021/12/10 09:15:09;;;;;;;15.13;8.85;;;2.00;99.90;;;;;;4973609;28;20542;-77
2021/12/10 09:17:38;;;;;;;15.90;9.05;;;2.00;99.90;;;;;;4974972;28;20050;-76
2021/12/10 09:20:09;;;;;;;17.25;9.07;;;2.10;99.90;;;;;;4974439;28;20046;-76
2021/12/10 09:22:35;;;;;;;16.15;9.15;;;2.10;99.90;;;;;;4974787;28;20053;-77
2021/12/10 09:25:01;;;;;;;16.67;9.18;;;2.10;99.90;;;;;;4974576;28;20404;-76
2021/12/10 09:27:26;;;;;;;19.13;8.85;;;2.20;99.90;;;;;;4975046;28;20043;-77
2021/12/10 09:29:55;;;;;;;11.95;7.97;;;2.20;99.90;;;;;;4974822;28;20042;-76
2021/12/10 09:32:24;;;;;;;17.05;8.32;;;2.30;99.90;;;;;;4974700;28;20043;-76
2021/12/10 09:34:52;;;;;;;18.48;9.25;;;2.40;99.90;;;;;;4974559;28;20470;-76
2021/12/10 09:37:19;;;;;;;13.40;8.13;;;2.40;99.90;;;;;;4956937;28;20042;-75
2021/12/10 09:39:48;;;;;;;14.88;7.57;;;2.50;99.90;;;;;;4974326;28;20141;-76
2021/12/10 09:42:15;;;;;;;16.65;8.15;;;2.60;99.90;;;;;;4974696;28;20049;-77
2021/12/10 09:44:42;;;;;;;15.50;7.78;;;2.70;99.90;;;;;;4957176;28;20046;-77
2021/12/10 09:47:11;;;;;;;14.50;8.38;;;2.80;99.90;;;;;;4974111;28;20054;-77
2021/12/10 09:49:36;;;;;;;13.45;7.50;;;2.80;99.90;;;;;;4974531;28;20043;-77
2021/12/10 09:52:06;;;;;;;15.93;7.38;;;2.90;99.90;;;;;;4973739;28;20130;-78
2021/12/10 09:54:34;;;;;;;13.23;7.60;;;3.00;99.90;;;;;;4974035;28;20631;-77
2021/12/10 09:57:04;;;;;;;15.65;7.28;;;3.20;99.90;;;;;;4974507;28;20089;-78
2021/12/10 09:59:31;;;;;;;12.00;7.30;;;3.30;99.90;;;;;;4956833;28;20125;-77
2021/12/10 10:01:59;;;;;;;17.08;7.80;;;3.40;99.90;;;;;;4974287;28;20046;-78
2021/12/10 10:04:27;;;;;;;15.02;7.05;;;3.50;99.90;;;;;;4973904;28;20397;-79
2021/12/10 10:06:57;;;;;;;14.48;6.97;;;3.70;99.90;;;;;;4955679;28;20132;-77
2021/12/10 10:09:24;;;;;;;12.77;6.95;;;3.80;99.90;;;;;;4942517;28;20548;-78
2021/12/10 10:11:55;;;;;;;11.18;6.05;;;3.90;99.90;;;;;;4962180;28;20050;-78
2021/12/10 10:14:21;;;;;;;15.57;6.60;;;4.10;99.90;;;;;;4955860;28;20126;-75
2021/12/10 10:16:47;;;;;;;14.45;7.22;;;4.20;99.90;;;;;;4954670;29;20517;-78
2021/12/10 10:19:14;;;;;;;15.07;7.07;;;4.40;99.90;;;;;;4954530;29;20062;-78
2021/12/10 10:21:45;;;;;;;11.18;6.85;;;4.60;99.90;;;;;;4970656;28;20039;-78
2021/12/10 10:24:11;;;;;;;9.65;5.90;;;4.80;99.90;;;;;;4956150;28;20055;-78
2021/12/10 10:26:45;;;;;;;12.52;6.63;;;4.70;99.90;;;;;;4956437;28;20074;-77
2021/12/10 10:29:16;;;;;;;8.75;5.63;;;4.80;99.90;;;;;;4973913;28;20072;-77
2021/12/10 10:31:49;;;;;;;10.00;5.40;;;4.80;99.90;;;;;;4973714;28;20150;-78
2021/12/10 10:34:15;;;;;;;10.88;5.70;;;4.90;99.90;;;;;;4956176;28;20524;-78
2021/12/10 10:36:41;;;;;;;8.35;4.70;;;5.00;99.90;;;;;;4973932;28;20065;-79
2021/12/10 10:39:32;;;;;;;11.40;4.95;;;5.00;99.90;;;;;;4973367;28;20494;-78
2021/12/10 10:42:00;;;;;;;9.23;5.47;;;5.30;99.90;;;;;;4973633;28;20043;-77
2021/12/10 10:44:26;;;;;;;9.52;5.25;;;5.10;99.90;;;;;;4972870;28;20379;-77
2021/12/10 10:47:00;;;;;;;10.20;5.93;;;5.20;99.90;;;;;;4973193;28;20043;-77
2021/12/10 10:49:48;;;;;;;16.70;6.25;;;5.40;99.90;;;;;;4973533;28;20035;-78
2021/12/10 10:52:23;;;;;;;9.63;5.13;;;5.40;99.90;;;;;;4956244;28;20050;-77
2021/12/10 10:54:51;;;;;;;14.48;5.20;;;5.40;99.90;;;;;;4955909;28;20050;-79
2021/12/10 10:57:24;;;;;;;8.18;5.25;;;5.30;99.90;;;;;;4973382;28;20364;-79
2021/12/10 10:59:57;;;;;;;8.75;4.47;;;5.40;99.90;;;;;;4972874;28;20038;-76
2021/12/10 11:02:37;;;;;;;9.43;4.40;;;5.60;99.90;;;;;;4973073;28;20043;-78
2021/12/10 11:05:11;;;;;;;11.15;4.97;;;5.70;99.90;;;;;;4973599;28;20478;-77
2021/12/10 11:07:51;;;;;;;10.13;5.00;;;5.70;99.90;;;;;;4973358;28;20368;-79
2021/12/10 11:10:42;;;;;;;9.18;4.32;;;5.80;99.90;;;;;;4972876;28;20129;-78
2021/12/10 11:13:20;;;;;;;10.68;4.43;;;5.80;99.90;;;;;;4973330;28;20047;-80
2021/12/10 11:16:00;;;;;;;10.43;4.90;;;5.90;99.90;;;;;;4973028;28;20051;-80
2021/12/10 11:18:27;;;;;;;9.55;4.28;;;6.00;99.90;;;;;;4973022;28;20117;-77
2021/12/10 11:20:54;;;;;;;12.57;5.75;;;5.90;99.90;;;;;;4972777;28;20382;-78
2021/12/10 11:23:25;;;;;;;11.25;5.25;;;6.10;99.90;;;;;;4973250;28;20047;-77
2021/12/10 11:25:55;;;;;;;9.23;4.22;;;6.10;99.90;;;;;;4973530;28;20074;-76
2021/12/10 11:28:32;;;;;;;9.68;4.20;;;6.10;99.90;;;;;;4973498;28;20093;-77
2021/12/10 11:31:03;;;;;;;9.55;3.78;;;6.10;99.90;;;;;;4976950;28;20425;-78
2021/12/10 11:33:32;;;;;;;7.10;3.58;;;6.20;99.90;;;;;;4959661;28;20117;-77
2021/12/10 11:36:22;;;;;;;11.88;4.53;;;6.30;99.90;;;;;;4976781;28;20055;-78
2021/12/10 11:38:56;;;;;;;10.25;4.15;;;6.40;99.90;;;;;;4973898;28;20078;-78
2021/12/10 11:41:26;;;;;;;10.30;4.20;;;6.40;99.90;;;;;;4976429;28;20065;-77
2021/12/10 11:49:38;;;;;;;8.65;3.72;;;6.80;99.90;;;;;;4976424;28;20134;-77
2021/12/10 11:52:16;;;;;;;10.13;4.00;;;6.70;99.90;;;;;;4961578;28;20058;-77
2021/12/10 11:54:55;;;;;;;8.50;3.30;;;6.70;99.90;;;;;;4976456;28;20039;-79
2021/12/10 11:57:28;;;;;;;9.30;3.45;;;6.70;99.90;;;;;;4975793;28;20043;-76
2021/12/10 12:00:17;;;;;;;8.18;3.50;;;6.70;99.90;;;;;;4976123;28;20050;-79
2021/12/10 12:02:55;;;;;;;10.27;4.05;;;6.70;99.90;;;;;;4976210;28;20050;-78
2021/12/10 12:05:35;;;;;;;9.18;3.22;;;6.80;99.90;;;;;;4976391;28;20051;-78
2021/12/10 12:08:05;;;;;;;8.57;3.40;;;6.80;99.90;;;;;;4958820;28;20050;-78
2021/12/10 12:10:37;;;;;;;8.63;3.38;;;6.70;99.90;;;;;;4976056;28;20050;-77
2021/12/10 12:13:24;;;;;;;7.40;3.58;;;6.60;99.90;;;;;;4975732;28;20051;-77
2021/12/10 12:15:54;;;;;;;10.18;3.40;;;6.60;99.90;;;;;;4975979;28;20066;-78
2021/12/10 12:18:33;;;;;;;12.70;3.72;;;6.60;99.90;;;;;;4976153;28;20092;-77
2021/12/10 12:27:10;;;;;;;8.65;3.10;;;6.40;99.90;;;;;;4975481;28;20053;-78
2021/12/10 12:29:39;;;;;;;10.18;3.53;;;6.30;99.90;;;;;;4975721;28;20051;-77
2021/12/10 12:32:38;;;;;;;8.25;3.55;;;6.30;99.90;;;;;;4975638;28;20086;-77
2021/12/10 12:35:24;;;;;;;9.85;3.50;;;6.40;99.90;;;;;;4878070;29;20076;-78
2021/12/10 12:37:50;;;;;;;5.65;3.47;;;6.40;99.90;;;;;;4878509;29;20060;-78
2021/12/10 12:40:17;;;;;;;6.05;3.08;;;6.40;99.90;;;;;;4862426;29;20071;-78
2021/12/10 12:42:48;;;;;;;6.13;3.15;;;6.50;99.90;;;;;;4878124;29;20120;-78
2021/12/10 12:45:23;;;;;;;5.63;2.88;;;6.50;99.90;;;;;;4878121;29;20088;-78
2021/12/10 12:47:51;;;;;;;9.07;3.30;;;6.50;99.90;;;;;;4878342;29;20057;-79
2021/12/10 12:50:20;;;;;;;10.63;3.35;;;6.60;99.90;;;;;;4878182;29;20057;-78
2021/12/10 12:52:47;;;;;;;11.15;3.70;;;6.60;99.90;;;;;;4878114;29;20057;-79
2021/12/10 12:55:35;;;;;;;7.03;3.00;;;6.70;99.90;;;;;;4877899;29;20128;-78
2021/12/10 12:58:10;;;;;;;7.45;3.08;;;6.70;99.90;;;;;;4862281;29;20439;-78
2021/12/10 13:00:38;;;;;;;7.18;3.03;;;6.80;99.90;;;;;;4878019;29;20055;-78
2021/12/10 13:03:10;;;;;;;7.65;3.17;;;7.00;99.90;;;;;;4877945;29;20070;-79
2021/12/10 13:05:47;;;;;;;8.68;2.95;;;7.00;99.90;;;;;;4862208;29;20068;-77
2021/12/10 13:08:16;;;;;;;10.15;3.15;;;7.10;99.90;;;;;;4877734;29;20466;-79
2021/12/10 13:10:49;;;;;;;7.10;2.83;;;7.10;99.90;;;;;;4880186;28;20045;-77
2021/12/10 13:13:29;;;;;;;11.65;3.63;;;7.60;99.90;;;;;;4974782;28;20051;-79